createdAt,value
2018-12-15T00:01:48.928Z,77.00
2018-12-15T00:04:17.188Z,77.20
2018-12-15T00:06:45.421Z,77.40
2018-12-15T00:09:13.661Z,77.50
2018-12-15T00:11:41.890Z,77.60
2018-12-15T00:14:10.064Z,77.50
2018-12-15T00:16:38.401Z,77.20
2018-12-15T00:19:06.948Z,77.30
2018-12-15T00:21:35.184Z,77.40
2018-12-15T00:24:03.388Z,77.60
2018-12-15T00:26:31.848Z,77.30
2018-12-15T00:29:00.036Z,77.30
2018-12-15T00:31:28.249Z,76.80
2018-12-15T00:33:56.535Z,77.10
2018-12-15T00:36:24.761Z,76.20
2018-12-15T00:38:52.902Z,76.50
2018-12-15T00:41:21.165Z,76.40
2018-12-15T00:43:49.419Z,76.50
2018-12-15T00:46:17.568Z,76.00
2018-12-15T00:48:45.766Z,75.20
2018-12-15T00:51:13.908Z,75.10
2018-12-15T00:53:42.056Z,75.30
2018-12-15T00:56:10.344Z,75.00
2018-12-15T00:58:38.535Z,75.40
2018-12-15T01:01:06.777Z,76.00
2018-12-15T01:03:35.140Z,76.00
2018-12-15T01:06:03.573Z,76.60
2018-12-15T01:08:31.727Z,76.50
2018-12-15T01:11:00.196Z,76.50
2018-12-15T01:13:28.504Z,76.50
2018-12-15T01:15:56.689Z,76.60
2018-12-15T01:18:25.300Z,76.80
2018-12-15T01:20:53.532Z,75.60
2018-12-15T01:23:21.729Z,75.30
2018-12-15T01:25:50.311Z,75.30
2018-12-15T01:28:18.619Z,75.50
2018-12-15T01:30:46.763Z,75.90
2018-12-15T01:33:14.918Z,75.80
2018-12-15T01:35:43.060Z,76.20
2018-12-15T01:38:11.279Z,76.50
2018-12-15T01:40:39.570Z,76.70
2018-12-15T01:43:07.684Z,76.80
2018-12-15T01:45:35.802Z,77.40
2018-12-15T01:48:03.943Z,76.80
2018-12-15T01:50:32.115Z,77.00
2018-12-15T01:53:00.273Z,77.00
2018-12-15T01:55:28.403Z,77.10
2018-12-15T01:57:56.560Z,77.70
2018-12-15T02:00:24.957Z,78.00
2018-12-15T02:02:53.105Z,78.30
2018-12-15T02:05:21.364Z,78.50
2018-12-15T02:07:49.590Z,78.20
2018-12-15T02:10:17.784Z,78.20
2018-12-15T02:12:45.939Z,78.60
2018-12-15T02:15:14.170Z,78.30
2018-12-15T02:17:42.365Z,78.30
2018-12-15T02:20:10.573Z,78.50
2018-12-15T02:22:38.880Z,78.30
2018-12-15T02:25:07.096Z,77.80
2018-12-15T02:27:35.247Z,77.40
2018-12-15T02:30:03.786Z,77.60
2018-12-15T02:32:32.048Z,78.00
2018-12-15T02:38:38.115Z,78.00
2018-12-15T02:41:06.380Z,78.00
2018-12-15T02:43:34.588Z,78.20
2018-12-15T02:46:02.891Z,78.40
2018-12-15T02:48:31.042Z,78.50
2018-12-15T02:50:59.322Z,78.40
2018-12-15T02:53:27.443Z,78.60
2018-12-15T02:55:55.672Z,78.60
2018-12-15T02:58:24.148Z,78.50
2018-12-15T03:00:52.288Z,78.40
2018-12-15T03:03:20.444Z,78.60
2018-12-15T03:05:50.384Z,78.80
2018-12-15T03:08:18.549Z,78.70
2018-12-15T03:10:46.707Z,78.20
2018-12-15T03:13:14.838Z,77.30
2018-12-15T03:15:42.959Z,77.20
2018-12-15T03:18:11.153Z,77.00
2018-12-15T03:20:39.287Z,76.50
2018-12-15T03:23:07.599Z,76.60
2018-12-15T03:25:35.748Z,77.60
2018-12-15T03:28:03.962Z,78.30
2018-12-15T03:30:32.114Z,78.30
2018-12-15T03:33:00.616Z,78.10
2018-12-15T03:35:28.768Z,77.90
2018-12-15T03:37:56.927Z,77.80
2018-12-15T03:40:25.511Z,78.00
2018-12-15T03:42:53.666Z,78.30
2018-12-15T03:45:21.849Z,78.80
2018-12-15T03:47:56.022Z,79.20
2018-12-15T03:50:20.315Z,78.50
2018-12-15T03:52:48.456Z,77.60
2018-12-15T03:55:16.600Z,77.30
2018-12-15T03:57:44.741Z,77.20
2018-12-15T04:00:12.881Z,77.00
2018-12-15T04:02:41.043Z,77.40
2018-12-15T04:05:09.250Z,77.40
2018-12-15T04:07:37.405Z,77.50
2018-12-15T04:10:05.985Z,77.80
2018-12-15T04:12:34.120Z,77.70
2018-12-15T04:15:02.275Z,77.60
2018-12-15T04:17:30.427Z,78.10
2018-12-15T04:19:58.629Z,78.10
2018-12-15T04:22:26.804Z,78.20
2018-12-15T04:24:55.029Z,78.50
2018-12-15T04:27:23.154Z,78.80
2018-12-15T04:29:51.379Z,78.80
2018-12-15T04:32:19.505Z,79.20
2018-12-15T04:34:47.702Z,78.70
2018-12-15T04:37:15.946Z,78.70
2018-12-15T04:39:44.076Z,77.50
2018-12-15T04:42:12.211Z,77.30
2018-12-15T04:44:40.732Z,77.60
2018-12-15T04:47:09.111Z,77.50
2018-12-15T04:49:37.301Z,77.40
2018-12-15T04:52:05.437Z,77.70
2018-12-15T04:54:33.580Z,77.80
2018-12-15T04:57:01.807Z,77.80
2018-12-15T04:59:29.931Z,77.80
2018-12-15T05:01:58.077Z,77.80
2018-12-15T05:04:26.575Z,77.50
2018-12-15T05:06:54.737Z,76.50
2018-12-15T05:09:22.881Z,76.00
2018-12-15T05:11:51.025Z,75.80
2018-12-15T05:14:19.259Z,75.80
2018-12-15T05:16:47.417Z,76.10
2018-12-15T05:19:15.540Z,76.60
2018-12-15T05:21:43.700Z,77.30
2018-12-15T05:24:11.840Z,77.10
2018-12-15T05:26:40.004Z,77.40
2018-12-15T05:29:08.164Z,76.90
2018-12-15T05:31:36.290Z,76.70
2018-12-15T05:34:04.508Z,76.80
2018-12-15T05:36:32.951Z,76.90
2018-12-15T05:39:01.330Z,77.10
2018-12-15T05:41:29.557Z,77.50
2018-12-15T05:43:57.674Z,77.80
2018-12-15T05:46:25.805Z,78.00
2018-12-15T05:48:53.945Z,77.90
2018-12-15T05:51:22.043Z,77.70
2018-12-15T05:53:50.189Z,77.70
2018-12-15T05:56:18.321Z,77.00
2018-12-15T05:58:46.456Z,76.00
2018-12-15T06:01:14.584Z,77.00
2018-12-15T06:03:42.807Z,77.30
2018-12-15T06:06:10.975Z,77.40
2018-12-15T06:08:39.158Z,77.20
2018-12-15T06:11:07.357Z,76.60
2018-12-15T06:13:35.524Z,76.30
2018-12-15T06:16:03.832Z,76.30
2018-12-15T06:18:32.065Z,76.50
2018-12-15T06:21:00.292Z,76.40
2018-12-15T06:23:28.450Z,76.60
2018-12-15T06:25:56.586Z,76.10
2018-12-15T06:28:24.755Z,75.60
2018-12-15T06:30:52.879Z,74.90
2018-12-15T06:33:21.162Z,74.60
2018-12-15T06:35:49.334Z,75.10
2018-12-15T06:38:17.492Z,75.30
2018-12-15T06:40:45.882Z,75.40
2018-12-15T06:43:14.036Z,76.00
2018-12-15T06:45:42.835Z,76.30
2018-12-15T06:48:10.996Z,76.60
2018-12-15T06:50:39.142Z,76.80
2018-12-15T06:53:07.443Z,77.20
2018-12-15T06:55:35.583Z,77.40
2018-12-15T06:58:03.725Z,77.90
2018-12-15T07:03:06.364Z,78.00
2018-12-15T07:05:41.352Z,77.80
2018-12-15T07:08:09.591Z,77.70
2018-12-15T07:10:37.712Z,77.30
2018-12-15T07:13:06.659Z,76.60
2018-12-15T07:15:34.792Z,76.10
2018-12-15T07:18:02.928Z,76.20
2018-12-15T07:20:31.118Z,76.50
2018-12-15T07:22:59.256Z,76.20
2018-12-15T07:25:27.385Z,74.90
2018-12-15T07:27:55.519Z,74.90
2018-12-15T07:30:24.008Z,75.20
2018-12-15T07:32:52.173Z,75.50
2018-12-15T07:35:20.447Z,75.90
2018-12-15T07:37:48.588Z,75.80
2018-12-15T07:40:16.736Z,75.90
2018-12-15T07:42:44.863Z,75.80
2018-12-15T07:45:13.083Z,76.10
2018-12-15T07:47:41.888Z,76.40
2018-12-15T07:50:10.042Z,76.70
2018-12-15T07:52:38.263Z,77.10
2018-12-15T07:55:06.851Z,76.50
2018-12-15T07:57:51.960Z,76.50
2018-12-15T08:00:20.095Z,76.50
2018-12-15T08:02:48.320Z,76.00
2018-12-15T08:05:16.443Z,75.90
2018-12-15T08:07:45.223Z,75.90
2018-12-15T08:10:15.532Z,76.10
2018-12-15T08:12:43.719Z,76.30
2018-12-15T08:15:12.013Z,76.10
2018-12-15T08:17:40.143Z,76.30
2018-12-15T08:20:09.740Z,76.50
2018-12-15T08:22:37.917Z,76.50
2018-12-15T08:25:06.999Z,76.10
2018-12-15T08:27:35.131Z,75.70
2018-12-15T08:30:03.947Z,75.40
2018-12-15T08:32:32.157Z,75.70
2018-12-15T08:35:00.391Z,76.00
2018-12-15T08:37:28.527Z,75.80
2018-12-15T08:39:56.838Z,76.00
2018-12-15T08:42:24.983Z,76.30
2018-12-15T08:44:53.161Z,76.00
2018-12-15T08:47:21.392Z,76.90
2018-12-15T08:49:49.627Z,76.70
2018-12-15T08:52:17.843Z,76.50
2018-12-15T08:54:45.972Z,75.60
2018-12-15T08:57:18.430Z,75.10
2018-12-15T08:59:46.678Z,74.20
2018-12-15T09:02:14.944Z,74.50
2018-12-15T09:04:43.085Z,74.50
2018-12-15T09:07:11.272Z,75.30
2018-12-15T09:09:39.546Z,74.60
2018-12-15T09:12:07.798Z,74.10
2018-12-15T09:14:36.005Z,73.50
2018-12-15T09:17:04.268Z,73.00
2018-12-15T09:19:32.411Z,73.20
2018-12-15T09:22:00.533Z,72.80
2018-12-15T09:24:28.653Z,73.10
2018-12-15T09:26:56.933Z,72.60
2018-12-15T09:29:25.100Z,72.60
2018-12-15T09:31:53.391Z,72.20
2018-12-15T09:34:21.559Z,72.50
2018-12-15T09:36:49.682Z,72.80
2018-12-15T09:39:17.884Z,72.80
2018-12-15T09:41:46.011Z,72.40
2018-12-15T09:44:14.252Z,72.70
2018-12-15T09:46:42.546Z,72.60
2018-12-15T09:49:10.795Z,72.60
2018-12-15T09:51:39.007Z,72.60
2018-12-15T09:54:07.220Z,72.70
2018-12-15T09:56:35.398Z,73.40
2018-12-15T09:59:03.624Z,72.30
2018-12-15T10:01:31.859Z,72.40
2018-12-15T10:04:00.208Z,72.20
2018-12-15T10:06:28.313Z,71.60
2018-12-15T10:08:56.515Z,71.90
2018-12-15T10:11:24.807Z,71.80
2018-12-15T10:13:52.942Z,70.60
2018-12-15T10:16:21.072Z,70.10
2018-12-15T10:18:49.275Z,70.20
2018-12-15T10:21:17.413Z,70.30
2018-12-15T10:23:45.641Z,69.90
2018-12-15T10:26:13.754Z,70.50
2018-12-15T10:28:44.031Z,70.60
2018-12-15T10:31:17.659Z,70.40
2018-12-15T10:33:45.786Z,70.80
2018-12-15T10:36:13.929Z,70.40
2018-12-15T10:38:42.090Z,71.20
2018-12-15T10:41:10.210Z,70.00
2018-12-15T10:43:38.343Z,70.60
2018-12-15T10:46:06.537Z,71.00
2018-12-15T10:48:34.720Z,70.70
2018-12-15T10:51:02.928Z,71.00
2018-12-15T10:53:31.084Z,70.50
2018-12-15T10:55:59.204Z,69.80
2018-12-15T10:58:27.550Z,69.30
2018-12-15T11:00:56.732Z,69.40
2018-12-15T11:03:24.869Z,69.70
2018-12-15T11:05:52.995Z,69.90
2018-12-15T11:08:21.152Z,69.60
2018-12-15T11:10:49.290Z,68.90
2018-12-15T11:13:17.576Z,69.10
2018-12-15T11:15:45.720Z,69.00
2018-12-15T11:18:13.860Z,69.80
2018-12-15T11:20:42.376Z,70.00
2018-12-15T11:23:10.729Z,69.10
2018-12-15T11:25:38.924Z,68.50
2018-12-15T11:28:07.057Z,68.60
2018-12-15T11:30:35.222Z,69.10
2018-12-15T11:33:03.431Z,69.30
2018-12-15T11:35:31.643Z,69.30
2018-12-15T11:37:59.839Z,70.00
2018-12-15T11:40:27.978Z,70.10
2018-12-15T11:42:56.211Z,69.80
2018-12-15T11:45:24.453Z,69.10
2018-12-15T11:47:52.588Z,69.30
2018-12-15T11:50:20.895Z,69.90
2018-12-15T11:52:49.017Z,69.00
2018-12-15T11:55:17.211Z,68.80
2018-12-15T11:57:45.358Z,68.40
2018-12-15T12:00:14.753Z,68.30
2018-12-15T12:02:42.955Z,68.70
2018-12-15T12:05:11.260Z,68.60
2018-12-15T12:07:39.390Z,67.90
2018-12-15T12:10:07.852Z,68.00
2018-12-15T12:12:35.977Z,67.40
2018-12-15T12:15:04.359Z,67.70
2018-12-15T12:17:32.568Z,66.60
2018-12-15T12:20:00.692Z,66.50
2018-12-15T12:22:28.900Z,65.90
2018-12-15T12:24:57.144Z,66.30
2018-12-15T12:27:25.344Z,65.60
2018-12-15T12:29:53.495Z,65.00
2018-12-15T12:32:21.648Z,64.40
2018-12-15T12:34:49.775Z,64.10
2018-12-15T12:37:17.891Z,64.60
2018-12-15T12:39:46.053Z,65.00
2018-12-15T12:42:14.197Z,65.90
2018-12-15T12:44:42.331Z,66.50
2018-12-15T12:47:10.555Z,65.50
2018-12-15T12:49:38.780Z,64.80
2018-12-15T12:52:06.947Z,64.30
2018-12-15T12:54:35.116Z,63.20
2018-12-15T12:57:03.228Z,63.40
2018-12-15T12:59:31.392Z,63.10
2018-12-15T13:01:59.511Z,63.20
2018-12-15T13:04:27.651Z,64.00
2018-12-15T13:06:55.771Z,64.50
2018-12-15T13:09:24.013Z,64.30
2018-12-15T13:11:52.232Z,64.00
2018-12-15T13:14:20.487Z,63.90
2018-12-15T13:16:48.619Z,64.80
2018-12-15T13:19:16.776Z,65.10
2018-12-15T13:21:45.048Z,65.30
2018-12-15T13:24:13.337Z,65.80
2018-12-15T13:26:41.747Z,65.40
2018-12-15T13:29:10.084Z,64.70
2018-12-15T13:31:38.401Z,63.90
2018-12-15T13:34:06.722Z,63.90
2018-12-15T13:36:38.129Z,65.20
2018-12-15T13:39:06.511Z,64.50
2018-12-15T13:41:34.895Z,65.30
2018-12-15T13:44:03.408Z,64.70
2018-12-15T13:46:31.692Z,64.60
2018-12-15T13:48:59.928Z,64.30
2018-12-15T13:51:28.179Z,65.00
2018-12-15T13:53:56.272Z,66.40
2018-12-15T13:56:24.509Z,66.20
2018-12-15T13:58:53.010Z,67.50
2018-12-15T14:01:21.248Z,67.10
2018-12-15T14:03:49.897Z,67.60
2018-12-15T14:06:18.107Z,68.70
2018-12-15T14:08:46.359Z,67.60
2018-12-15T14:11:20.056Z,67.70
2018-12-15T14:13:48.616Z,67.90
2018-12-15T14:16:16.877Z,68.20
2018-12-15T14:18:45.511Z,68.80
2018-12-15T14:21:13.858Z,69.30
2018-12-15T14:23:42.238Z,69.80
2018-12-15T14:26:10.477Z,70.00
2018-12-15T14:28:38.643Z,69.90
2018-12-15T14:31:06.868Z,69.50
2018-12-15T14:33:35.237Z,69.70
2018-12-15T14:36:03.706Z,70.20
2018-12-15T14:38:31.827Z,70.30
2018-12-15T14:41:00.045Z,70.50
2018-12-15T14:43:29.280Z,70.80
2018-12-15T14:45:57.456Z,70.40
2018-12-15T14:48:26.806Z,70.30
2018-12-15T14:50:55.089Z,70.60
2018-12-15T14:53:23.287Z,70.60
2018-12-15T14:55:51.705Z,70.90
2018-12-15T14:58:19.945Z,70.50
2018-12-15T15:00:48.193Z,70.10
2018-12-15T15:03:17.272Z,70.90
2018-12-15T15:05:45.546Z,71.30
2018-12-15T15:08:13.785Z,71.40
2018-12-15T15:10:42.182Z,71.80
2018-12-15T15:13:10.730Z,71.80
2018-12-15T15:15:38.923Z,71.90
2018-12-15T15:18:07.075Z,72.00
2018-12-15T15:20:35.264Z,73.30
2018-12-15T15:23:03.395Z,73.50
2018-12-15T15:25:31.675Z,73.00
2018-12-15T15:27:59.834Z,72.80
2018-12-15T15:30:27.975Z,73.60
2018-12-15T15:32:56.127Z,73.90
2018-12-15T15:35:24.263Z,73.80
2018-12-15T15:37:52.459Z,73.60
2018-12-15T15:40:20.883Z,73.60
2018-12-15T15:42:50.011Z,73.70
2018-12-15T15:45:18.185Z,73.70
2018-12-15T15:47:46.428Z,73.40
2018-12-15T15:50:14.673Z,73.90
2018-12-15T15:52:42.944Z,73.20
2018-12-15T15:55:11.148Z,73.20
2018-12-15T15:57:39.368Z,73.90
2018-12-15T16:00:08.876Z,74.30
2018-12-15T16:02:37.104Z,74.50
2018-12-15T16:05:05.748Z,74.00
2018-12-15T16:07:33.948Z,73.90
2018-12-15T16:10:02.205Z,73.90
2018-12-15T16:12:30.703Z,74.10
2018-12-15T16:14:58.906Z,74.50
2018-12-15T16:17:27.136Z,74.60
2018-12-15T16:19:55.248Z,74.40
2018-12-15T16:22:23.450Z,74.40
2018-12-15T16:24:51.972Z,74.50
2018-12-15T16:27:20.111Z,74.60
2018-12-15T16:29:48.295Z,74.50
2018-12-15T16:32:16.463Z,74.60
2018-12-15T16:34:45.068Z,74.60
2018-12-15T16:37:13.176Z,74.60
2018-12-15T16:39:41.374Z,74.70
2018-12-15T16:42:09.597Z,74.50
2018-12-15T16:44:37.856Z,74.70
2018-12-15T16:47:06.153Z,75.00
2018-12-15T16:49:34.320Z,75.50
2018-12-15T16:52:02.544Z,76.20
2018-12-15T16:54:30.685Z,76.20
2018-12-15T16:56:58.877Z,76.20
2018-12-15T16:59:27.018Z,76.20
2018-12-15T17:01:55.160Z,76.10
2018-12-15T17:04:23.515Z,76.30
2018-12-15T17:06:51.668Z,76.30
2018-12-15T17:09:20.041Z,76.20
2018-12-15T17:11:48.295Z,75.50
2018-12-15T17:14:16.913Z,75.30
2018-12-15T17:16:45.150Z,75.50
2018-12-15T17:19:20.252Z,75.70
2018-12-15T17:21:48.492Z,75.70
2018-12-15T17:24:16.722Z,76.10
2018-12-15T17:26:45.071Z,76.30
2018-12-15T17:29:13.224Z,76.60
2018-12-15T17:31:41.469Z,76.20
2018-12-15T17:34:09.740Z,76.40
2018-12-15T17:36:38.159Z,76.70
2018-12-15T17:39:07.949Z,77.20
2018-12-15T17:41:36.420Z,77.10
2018-12-15T17:44:04.664Z,77.30
2018-12-15T17:46:33.004Z,77.80
2018-12-15T17:49:01.201Z,78.40
2018-12-15T17:51:29.409Z,79.30
2018-12-15T17:53:57.741Z,79.30
2018-12-15T17:56:25.923Z,79.10
2018-12-15T17:58:54.291Z,79.60
2018-12-15T18:01:22.508Z,80.10
2018-12-15T18:03:50.727Z,80.50
2018-12-15T18:06:18.921Z,80.90
2018-12-15T18:08:47.089Z,81.30
2018-12-15T18:11:15.328Z,82.70
2018-12-15T18:13:43.555Z,82.90
2018-12-15T18:16:11.713Z,83.30
2018-12-15T18:18:39.991Z,84.00
2018-12-15T18:21:09.875Z,84.70
2018-12-15T18:24:09.208Z,85.50
2018-12-15T18:26:38.283Z,86.60
2018-12-15T18:29:06.451Z,86.90
2018-12-15T18:31:34.710Z,87.50
2018-12-15T18:34:03.131Z,88.30
2018-12-15T18:36:32.293Z,88.50
2018-12-15T18:39:00.504Z,88.90
2018-12-15T18:41:28.693Z,88.80
2018-12-15T18:43:56.896Z,88.70
2018-12-15T18:46:25.183Z,89.00
2018-12-15T18:48:53.392Z,89.50
2018-12-15T18:51:21.561Z,89.70
2018-12-15T18:53:49.805Z,89.80
2018-12-15T18:56:17.992Z,90.10
2018-12-15T18:58:46.140Z,90.30
2018-12-15T19:01:14.333Z,90.70
2018-12-15T19:03:42.488Z,90.60
2018-12-15T19:06:10.636Z,90.70
2018-12-15T19:08:38.852Z,90.60
2018-12-15T19:11:07.400Z,90.80
2018-12-15T19:13:35.596Z,90.90
2018-12-15T19:16:03.784Z,90.90
2018-12-15T19:18:32.099Z,91.10
2018-12-15T19:21:00.367Z,91.20
2018-12-15T19:23:28.508Z,91.30
2018-12-15T19:25:56.699Z,91.40
2018-12-15T19:28:24.923Z,91.40
2018-12-15T19:30:53.076Z,91.40
2018-12-15T19:33:21.240Z,91.50
2018-12-15T19:35:49.389Z,91.80
2018-12-15T19:38:18.546Z,92.00
2018-12-15T19:40:46.767Z,91.70
2018-12-15T19:43:15.051Z,91.70
2018-12-15T19:45:43.252Z,91.80
2018-12-15T19:48:11.388Z,92.10
2018-12-15T19:50:39.651Z,92.50
2018-12-15T19:53:08.085Z,92.50
2018-12-15T19:55:36.218Z,92.70
2018-12-15T19:58:04.548Z,93.00
2018-12-15T20:00:33.108Z,93.20
2018-12-15T20:03:01.246Z,92.90
2018-12-15T20:05:29.443Z,93.00
2018-12-15T20:07:57.792Z,93.60
2018-12-15T20:10:26.107Z,93.30
2018-12-15T20:12:54.338Z,93.20
2018-12-15T20:15:22.535Z,93.60
2018-12-15T20:17:50.800Z,93.30
2018-12-15T20:20:18.949Z,93.10
2018-12-15T20:22:47.408Z,93.30
2018-12-15T20:25:15.614Z,93.10
2018-12-15T20:27:43.929Z,93.00
2018-12-15T20:30:12.208Z,93.10
2018-12-15T20:32:41.068Z,93.10
2018-12-15T20:35:09.385Z,93.30
2018-12-15T20:37:37.509Z,93.60
2018-12-15T20:40:07.697Z,93.80
2018-12-15T20:42:36.010Z,93.90
2018-12-15T20:45:05.607Z,93.80
2018-12-15T20:47:33.927Z,93.80
2018-12-15T20:50:02.153Z,93.90
2018-12-15T20:52:30.285Z,94.00
2018-12-15T20:54:58.488Z,94.10
2018-12-15T20:57:26.879Z,94.50
2018-12-15T20:59:55.024Z,94.50
2018-12-15T21:02:23.307Z,95.00
2018-12-15T21:04:51.809Z,95.00
2018-12-15T21:07:20.288Z,94.90
2018-12-15T21:09:48.437Z,94.80
2018-12-15T21:12:16.620Z,94.60
2018-12-15T21:14:45.194Z,94.90
2018-12-15T21:17:13.431Z,95.20
2018-12-15T21:19:47.706Z,95.30
2018-12-15T21:22:11.883Z,95.40
2018-12-15T21:24:40.251Z,95.50
2018-12-15T21:27:08.525Z,95.60
2018-12-15T21:29:36.663Z,95.40
2018-12-15T21:32:04.983Z,95.40
2018-12-15T21:34:33.230Z,95.60
2018-12-15T21:37:01.464Z,95.60
2018-12-15T21:39:29.699Z,95.60
2018-12-15T21:41:58.143Z,95.60
2018-12-15T21:44:26.579Z,95.60
2018-12-15T21:46:54.713Z,95.60
2018-12-15T21:49:22.880Z,95.60
2018-12-15T21:51:56.279Z,95.60
2018-12-15T21:54:21.448Z,95.70
2018-12-15T21:56:50.055Z,95.80
2018-12-15T21:59:18.249Z,96.00
2018-12-15T22:01:46.450Z,96.20
2018-12-15T22:04:14.689Z,96.20
2018-12-15T22:06:42.891Z,96.50
2018-12-15T22:09:11.056Z,96.50
2018-12-15T22:11:39.275Z,96.50
2018-12-15T22:14:07.859Z,96.40
2018-12-15T22:16:36.053Z,96.30
2018-12-15T22:19:04.484Z,96.10
2018-12-15T22:21:32.773Z,95.80
2018-12-15T22:24:00.991Z,95.50
2018-12-15T22:26:29.112Z,95.40
2018-12-15T22:28:57.225Z,95.30
2018-12-15T22:31:25.491Z,95.10
2018-12-15T22:33:53.761Z,95.10
2018-12-15T22:36:21.908Z,95.10
2018-12-15T22:38:50.106Z,95.00
2018-12-15T22:41:18.369Z,94.90
2018-12-15T22:43:46.640Z,94.90
2018-12-15T22:46:14.788Z,94.80
2018-12-15T22:48:43.020Z,94.80
2018-12-15T22:51:11.172Z,94.80
2018-12-15T22:53:43.444Z,94.80
2018-12-15T22:56:11.636Z,95.20
2018-12-15T22:58:39.795Z,94.90
2018-12-15T23:01:12.464Z,94.80
2018-12-15T23:03:40.724Z,94.80
2018-12-15T23:06:09.097Z,94.70
2018-12-15T23:08:37.377Z,94.70
2018-12-15T23:11:05.813Z,94.70
2018-12-15T23:13:34.275Z,94.70
2018-12-15T23:16:02.701Z,94.70
2018-12-15T23:18:30.919Z,94.80
2018-12-15T23:20:59.076Z,94.80
2018-12-15T23:23:27.377Z,94.80
2018-12-15T23:25:55.514Z,94.80
2018-12-15T23:28:23.721Z,94.80
2018-12-15T23:30:51.953Z,94.80
2018-12-15T23:33:20.137Z,94.70
2018-12-15T23:36:03.099Z,94.50
2018-12-15T23:38:32.787Z,94.70
2018-12-15T23:41:01.047Z,94.60
2018-12-15T23:43:29.208Z,94.10
2018-12-15T23:45:57.396Z,94.00
2018-12-15T23:48:25.510Z,93.90
2018-12-15T23:50:53.652Z,93.90
2018-12-15T23:53:21.961Z,93.80
2018-12-15T23:55:50.095Z,93.90
2018-12-15T23:58:18.227Z,93.90
